Time;durP1;ratioP1;P1;durP2;ratioP2;P2;SDS_P1;SDS_P2;PMS_P1;PMS_P2;Temp;Humidity;BMP_temperature;BMP_pressure;BME280_temperature;BME280_humidity;BME280_pressure;Samples;Min_cycle;Max_cycle;Signal;HPM_P1;HPM_P2
2021/12/07 00:00:40;;;;;;;25.58;12.98;;;1.90;92.20;;;;;;5016067;28;20029;-77
2021/12/07 00:03:05;;;;;;;24.30;13.15;;;1.90;92.20;;;;;;5010885;28;20035;-77
2021/12/07 00:05:31;;;;;;;22.00;12.60;;;1.90;92.20;;;;;;5022286;28;20035;-77
2021/12/07 00:07:57;;;;;;;27.77;13.20;;;1.90;92.20;;;;;;5020176;28;20104;-77
2021/12/07 00:10:22;;;;;;;27.40;13.88;;;1.90;92.60;;;;;;5006552;28;20056;-77
2021/12/07 00:12:48;;;;;;;28.75;13.77;;;1.90;92.20;;;;;;5002422;28;20041;-77
2021/12/07 00:15:17;;;;;;;26.15;13.18;;;1.90;92.20;;;;;;5024261;28;20032;-78
2021/12/07 00:17:43;;;;;;;25.08;14.10;;;1.90;92.20;;;;;;5019817;28;20030;-77
2021/12/07 00:20:11;;;;;;;25.38;13.85;;;1.90;92.20;;;;;;5029189;28;20118;-77
2021/12/07 00:22:38;;;;;;;25.02;13.85;;;2.00;92.20;;;;;;5008623;28;21285;-77
2021/12/07 00:25:04;;;;;;;25.00;13.55;;;2.00;92.20;;;;;;5018610;28;21527;-77
2021/12/07 00:27:30;;;;;;;26.17;14.25;;;2.00;92.20;;;;;;4992167;28;20061;-77
2021/12/07 00:29:55;;;;;;;27.15;13.65;;;2.00;92.30;;;;;;5021630;28;20076;-78
2021/12/07 00:32:44;;;;;;;23.88;12.18;;;2.00;92.30;;;;;;5004288;28;20071;-77
2021/12/07 00:35:34;;;;;;;21.10;11.45;;;2.00;92.20;;;;;;5022471;28;20041;-77
2021/12/07 00:38:02;;;;;;;22.77;11.68;;;2.00;92.20;;;;;;5024077;28;20141;-77
2021/12/07 00:40:29;;;;;;;22.33;11.80;;;2.00;92.20;;;;;;5023739;28;20144;-77
2021/12/07 00:42:55;;;;;;;20.65;11.77;;;2.00;92.20;;;;;;5001040;28;20048;-77
2021/12/07 00:45:22;;;;;;;18.40;10.82;;;2.00;92.20;;;;;;5012210;28;20025;-77
2021/12/07 00:47:51;;;;;;;24.40;11.10;;;2.00;92.20;;;;;;5007851;28;20514;-77
2021/12/07 00:50:17;;;;;;;21.00;11.40;;;2.10;92.20;;;;;;5021677;28;20086;-77
2021/12/07 00:52:42;;;;;;;22.10;12.32;;;2.10;92.30;;;;;;5041633;28;20048;-77
2021/12/07 00:55:13;;;;;;;17.63;10.30;;;2.10;92.30;;;;;;5034499;28;20526;-77
2021/12/07 00:57:39;;;;;;;20.95;10.82;;;2.10;92.30;;;;;;5029898;28;20028;-77
2021/12/07 01:00:06;;;;;;;16.20;9.82;;;2.10;92.20;;;;;;5021044;28;20091;-77
2021/12/07 01:02:31;;;;;;;16.45;9.55;;;2.10;92.20;;;;;;5011114;28;20051;-77
2021/12/07 01:05:03;;;;;;;13.38;8.23;;;2.10;92.20;;;;;;5002980;28;20490;-77
2021/12/07 01:26:34;;;;;;;9.93;5.88;;;2.10;92.20;;;;;;4989683;28;20074;-78
2021/12/07 01:29:00;;;;;;;10.27;6.15;;;2.10;92.20;;;;;;5022368;28;20053;-78
2021/12/07 01:31:32;;;;;;;11.02;6.30;;;2.10;92.60;;;;;;5020357;28;20037;-78
2021/12/07 01:34:25;;;;;;;11.50;6.68;;;2.10;92.20;;;;;;5008274;28;20040;-78
2021/12/07 01:48:08;;;;;;;9.68;6.05;;;2.10;92.20;;;;;;5039175;28;20098;-78
2021/12/07 01:50:47;;;;;;;10.90;6.55;;;2.10;92.30;;;;;;5016711;28;20029;-78
2021/12/07 02:01:33;;;;;;;10.15;5.68;;;2.00;92.20;;;;;;4990090;28;20056;-78
2021/12/07 02:03:59;;;;;;;8.85;5.63;;;2.00;92.30;;;;;;5023119;28;20061;-79
2021/12/07 02:06:25;;;;;;;8.25;5.30;;;2.00;92.30;;;;;;5007644;28;20037;-78
2021/12/07 02:08:51;;;;;;;9.18;5.40;;;2.00;92.30;;;;;;5017773;28;20107;-79
2021/12/07 02:11:17;;;;;;;9.45;5.32;;;2.10;92.30;;;;;;5022255;28;20029;-79
2021/12/07 02:16:08;;;;;;;7.60;4.68;;;2.00;92.30;;;;;;5034812;28;20029;-79
2021/12/07 02:18:34;;;;;;;6.20;4.40;;;2.00;92.30;;;;;;5018031;28;20026;-79
2021/12/07 02:21:32;;;;;;;6.82;4.65;;;2.00;92.30;;;;;;5010072;28;20099;-78
2021/12/07 02:23:58;;;;;;;6.32;3.90;;;2.00;92.40;;;;;;4963948;28;20156;-79
2021/12/07 02:26:23;;;;;;;6.00;3.97;;;2.00;92.30;;;;;;5004146;28;20108;-79
2021/12/07 02:28:52;;;;;;;5.97;3.88;;;2.00;92.70;;;;;;5018901;28;20045;-78
2021/12/07 02:31:17;;;;;;;3.95;3.10;;;2.10;92.40;;;;;;5016052;28;20025;-79
2021/12/07 02:33:43;;;;;;;6.07;4.03;;;2.00;92.30;;;;;;5018039;28;20107;-78
2021/12/07 02:36:08;;;;;;;5.30;3.17;;;2.10;92.40;;;;;;5009854;28;20028;-78
2021/12/07 02:38:34;;;;;;;5.22;3.40;;;2.10;92.40;;;;;;5015242;28;20032;-78
2021/12/07 02:40:59;;;;;;;4.50;3.08;;;2.10;92.40;;;;;;5020119;28;20030;-78
2021/12/07 02:43:25;;;;;;;4.60;2.88;;;2.10;92.40;;;;;;5014692;28;20433;-78
2021/12/07 02:45:51;;;;;;;4.35;3.20;;;2.10;92.40;;;;;;5021447;28;20484;-78
2021/12/07 02:48:19;;;;;;;4.22;3.38;;;2.10;92.40;;;;;;4994701;28;20091;-78
2021/12/07 02:50:46;;;;;;;3.72;3.00;;;2.10;92.40;;;;;;4998448;28;20116;-78
2021/12/07 02:53:11;;;;;;;4.30;2.92;;;2.10;92.40;;;;;;5006626;28;20160;-78
2021/12/07 02:55:37;;;;;;;3.70;3.00;;;2.10;92.40;;;;;;5021853;28;20444;-78
2021/12/07 02:58:02;;;;;;;3.63;2.90;;;2.10;92.40;;;;;;5016905;28;21945;-78
2021/12/07 03:00:36;;;;;;;4.10;2.75;;;2.10;92.40;;;;;;5019992;28;20033;-77
2021/12/07 03:03:07;;;;;;;3.67;2.67;;;2.10;92.40;;;;;;5018669;28;20585;-78
2021/12/07 03:27:21;;;;;;;2.83;2.17;;;2.10;92.30;;;;;;5003049;28;20036;-78
2021/12/07 03:29:47;;;;;;;2.40;2.20;;;2.10;92.40;;;;;;5000685;28;20034;-78
2021/12/07 03:32:13;;;;;;;3.13;2.15;;;2.10;92.40;;;;;;5001515;28;20033;-79
2021/12/07 03:34:38;;;;;;;2.05;1.85;;;2.20;92.40;;;;;;5010029;28;20053;-78
2021/12/07 03:37:04;;;;;;;2.50;2.28;;;2.20;92.40;;;;;;5000718;28;20090;-78
2021/12/07 03:39:29;;;;;;;3.22;2.47;;;2.20;92.40;;;;;;4995694;28;20033;-79
2021/12/07 03:41:55;;;;;;;2.33;2.13;;;2.20;92.40;;;;;;5007316;28;20037;-79
2021/12/07 03:44:21;;;;;;;3.17;1.80;;;2.20;92.50;;;;;;5029173;28;20064;-78
2021/12/07 03:46:46;;;;;;;2.72;1.88;;;2.20;92.50;;;;;;5017455;28;20403;-79
2021/12/07 03:49:12;;;;;;;3.22;2.40;;;2.20;92.50;;;;;;5015177;28;20700;-78
2021/12/07 03:51:37;;;;;;;2.78;2.17;;;2.20;92.50;;;;;;5004236;28;20049;-78
2021/12/07 03:54:04;;;;;;;2.00;1.73;;;2.20;92.50;;;;;;5011948;28;20032;-79
2021/12/07 03:56:29;;;;;;;2.70;2.30;;;2.20;92.50;;;;;;5010188;28;20053;-78
2021/12/07 03:58:55;;;;;;;2.30;1.92;;;2.20;92.50;;;;;;5017247;28;20512;-79
2021/12/07 04:01:23;;;;;;;3.05;2.30;;;2.20;92.50;;;;;;5009901;28;20133;-78
2021/12/07 04:03:49;;;;;;;3.25;2.00;;;2.20;92.50;;;;;;5009697;28;20075;-79
2021/12/07 04:06:15;;;;;;;4.13;2.50;;;2.20;92.50;;;;;;5009441;28;20080;-79
2021/12/07 04:08:43;;;;;;;3.08;1.88;;;2.20;92.50;;;;;;5000405;28;20030;-79
2021/12/07 04:11:08;;;;;;;4.63;2.95;;;2.20;92.50;;;;;;5001322;28;20034;-78
2021/12/07 04:13:34;;;;;;;2.85;2.30;;;2.30;92.50;;;;;;5008761;28;20037;-79
2021/12/07 04:15:59;;;;;;;2.13;1.92;;;2.20;92.50;;;;;;5010866;28;20116;-79
2021/12/07 04:18:25;;;;;;;3.05;2.20;;;2.30;92.50;;;;;;5028481;28;20687;-78
2021/12/07 04:20:51;;;;;;;2.72;2.22;;;2.20;92.50;;;;;;4996599;28;20057;-79
2021/12/07 04:23:16;;;;;;;2.92;2.03;;;2.30;92.50;;;;;;5003931;28;20042;-79
2021/12/07 04:25:42;;;;;;;6.07;3.78;;;2.30;92.50;;;;;;4998256;28;20380;-79
2021/12/07 04:28:07;;;;;;;3.03;2.42;;;2.30;92.50;;;;;;5013521;28;20713;-79
2021/12/07 04:30:38;;;;;;;3.65;2.58;;;2.30;92.50;;;;;;5017683;28;20040;-79
2021/12/07 04:33:04;;;;;;;3.28;2.65;;;2.30;92.50;;;;;;5008054;28;20415;-79
2021/12/07 04:35:30;;;;;;;4.05;2.65;;;2.30;92.50;;;;;;5013397;28;20052;-79
2021/12/07 04:37:56;;;;;;;2.75;2.28;;;2.30;92.50;;;;;;5006435;28;20033;-79
2021/12/07 04:40:23;;;;;;;2.00;1.80;;;2.30;92.50;;;;;;4995811;28;20029;-79
2021/12/07 04:42:49;;;;;;;3.70;2.05;;;2.30;92.50;;;;;;5007900;28;20041;-79
2021/12/07 04:45:38;;;;;;;2.58;1.83;;;2.30;92.60;;;;;;5016441;28;20087;-78
2021/12/07 04:59:02;;;;;;;2.72;1.80;;;2.30;92.60;;;;;;4934477;28;20030;-79
2021/12/07 05:01:28;;;;;;;2.17;1.50;;;2.40;92.60;;;;;;5029121;28;20098;-79
2021/12/07 05:03:57;;;;;;;2.90;1.33;;;2.40;92.60;;;;;;5004414;28;20033;-79
2021/12/07 05:06:27;;;;;;;2.28;1.73;;;2.40;92.70;;;;;;5010052;28;20076;-78
2021/12/07 05:09:01;;;;;;;1.80;1.70;;;2.40;92.60;;;;;;4992366;28;20388;-79
2021/12/07 05:11:43;;;;;;;2.45;1.73;;;2.40;92.60;;;;;;5013192;28;20120;-79
2021/12/07 05:14:21;;;;;;;1.63;1.30;;;2.40;92.60;;;;;;5011301;28;20040;-79
2021/12/07 05:17:13;;;;;;;2.90;1.40;;;2.40;92.60;;;;;;5006206;28;20033;-78
2021/12/07 05:38:43;;;;;;;5.10;1.35;;;2.60;92.70;;;;;;5001585;28;20040;-79
2021/12/07 05:41:09;;;;;;;3.00;1.60;;;2.60;92.70;;;;;;5027032;28;20033;-79
2021/12/07 05:43:35;;;;;;;3.05;1.30;;;2.60;92.70;;;;;;5004637;28;20028;-79
2021/12/07 05:46:00;;;;;;;2.03;1.20;;;2.60;92.70;;;;;;4995451;28;20044;-79
2021/12/07 05:48:26;;;;;;;3.67;1.50;;;2.60;92.70;;;;;;4989210;28;20136;-79
2021/12/07 05:50:52;;;;;;;2.50;1.35;;;2.70;92.80;;;;;;4988700;28;20087;-79
2021/12/07 05:53:17;;;;;;;5.95;1.40;;;2.70;92.80;;;;;;4995371;28;21848;-79
2021/12/07 05:55:43;;;;;;;5.13;1.50;;;2.70;92.80;;;;;;5001823;28;20036;-79
2021/12/07 05:58:08;;;;;;;3.35;1.67;;;2.70;92.80;;;;;;5035054;28;20044;-79
2021/12/07 06:00:34;;;;;;;2.80;1.40;;;2.80;92.80;;;;;;5015134;28;20595;-79
2021/12/07 06:03:05;;;;;;;5.97;1.80;;;2.80;92.80;;;;;;5015514;28;20103;-79
2021/12/07 06:05:31;;;;;;;4.82;1.17;;;2.80;92.80;;;;;;5022658;28;20029;-79
2021/12/07 06:07:56;;;;;;;1.85;1.10;;;2.80;92.80;;;;;;5029328;28;20087;-79
2021/12/07 06:10:22;;;;;;;2.17;1.23;;;2.80;92.80;;;;;;5018429;28;20116;-79
2021/12/07 06:12:48;;;;;;;2.72;1.40;;;2.80;92.80;;;;;;5019143;28;20041;-79
2021/12/07 06:15:17;;;;;;;1.90;1.25;;;2.80;92.80;;;;;;5013348;28;20030;-79
2021/12/07 06:17:42;;;;;;;2.95;1.00;;;2.80;92.80;;;;;;5020897;28;20056;-79
2021/12/07 06:20:08;;;;;;;2.53;1.33;;;2.90;92.80;;;;;;5022489;28;20518;-79
2021/12/07 06:22:34;;;;;;;4.40;1.20;;;2.90;92.80;;;;;;4989383;28;20070;-79
2021/12/07 06:25:00;;;;;;;2.60;1.48;;;2.90;92.80;;;;;;5008330;28;20463;-79
2021/12/07 06:27:25;;;;;;;2.92;1.00;;;2.90;92.80;;;;;;5005295;28;20041;-79
2021/12/07 06:29:51;;;;;;;3.83;1.40;;;2.90;92.80;;;;;;5018459;28;20040;-79
2021/12/07 06:32:16;;;;;;;3.17;1.35;;;2.90;92.80;;;;;;5006513;28;20295;-79
2021/12/07 06:34:42;;;;;;;4.93;1.25;;;2.90;92.80;;;;;;5016536;28;20586;-79
2021/12/07 06:37:07;;;;;;;2.10;1.30;;;3.00;92.80;;;;;;5005006;28;20129;-79
2021/12/07 06:39:33;;;;;;;5.97;1.85;;;3.00;92.80;;;;;;5012164;28;20029;-79
2021/12/07 06:41:59;;;;;;;3.60;1.42;;;3.00;92.80;;;;;;5012057;28;20097;-78
2021/12/07 06:44:24;;;;;;;1.83;1.27;;;3.00;93.20;;;;;;5015950;28;20490;-79
2021/12/07 06:46:50;;;;;;;4.05;0.98;;;3.00;92.80;;;;;;5003960;28;20542;-79
2021/12/07 06:49:16;;;;;;;3.78;1.38;;;3.00;92.80;;;;;;5011768;28;20099;-79
2021/12/07 06:51:42;;;;;;;4.85;1.52;;;3.00;92.80;;;;;;5022925;28;20106;-79
2021/12/07 06:54:07;;;;;;;6.28;1.90;;;3.00;92.80;;;;;;4981435;28;20577;-79
2021/12/07 06:56:33;;;;;;;4.15;1.27;;;3.00;92.80;;;;;;5023967;28;20388;-79
2021/12/07 06:58:58;;;;;;;5.97;1.17;;;3.00;92.80;;;;;;5020595;28;20034;-78
2021/12/07 07:01:24;;;;;;;3.42;1.40;;;3.10;92.80;;;;;;5021469;28;20056;-79
2021/12/07 07:03:49;;;;;;;3.22;1.35;;;3.10;92.80;;;;;;5003785;28;20033;-79
2021/12/07 07:06:15;;;;;;;2.35;1.33;;;3.10;92.80;;;;;;5001749;28;20048;-79
2021/12/07 07:08:40;;;;;;;3.55;1.20;;;3.10;92.80;;;;;;5017527;28;20030;-79
2021/12/07 07:11:06;;;;;;;6.57;1.77;;;3.10;92.80;;;;;;5023555;28;20096;-79
2021/12/07 07:13:32;;;;;;;4.22;1.48;;;3.10;92.80;;;;;;5003972;28;20030;-79
2021/12/07 07:15:58;;;;;;;3.50;1.30;;;3.10;92.80;;;;;;5019654;28;20045;-79
2021/12/07 07:18:23;;;;;;;5.22;1.25;;;3.10;92.80;;;;;;4975658;28;20043;-79
2021/12/07 07:20:49;;;;;;;7.75;1.35;;;3.10;92.80;;;;;;4996364;28;20040;-79
2021/12/07 07:23:14;;;;;;;3.78;1.48;;;3.20;92.80;;;;;;5012026;28;20029;-79
2021/12/07 07:25:40;;;;;;;4.15;1.50;;;3.20;92.80;;;;;;5023203;28;20113;-79
2021/12/07 07:28:05;;;;;;;2.15;1.30;;;3.20;92.80;;;;;;5017805;28;20038;-79
2021/12/07 07:30:31;;;;;;;3.53;1.27;;;3.20;92.80;;;;;;5019159;28;20117;-79
2021/12/07 07:32:57;;;;;;;6.45;1.70;;;3.20;92.80;;;;;;5001218;28;20030;-79
2021/12/07 07:35:22;;;;;;;3.95;1.50;;;3.30;92.80;;;;;;4979631;28;20026;-79
2021/12/07 07:37:48;;;;;;;1.60;1.40;;;3.30;92.80;;;;;;5006067;28;21039;-79
2021/12/07 07:40:16;;;;;;;4.25;1.50;;;3.20;92.80;;;;;;5007492;28;20043;-79
2021/12/07 07:42:42;;;;;;;6.55;1.65;;;3.30;92.80;;;;;;5015404;28;20425;-79
2021/12/07 07:45:08;;;;;;;5.13;1.15;;;3.30;92.80;;;;;;5002223;28;20510;-79
2021/12/07 07:47:33;;;;;;;4.15;1.10;;;3.30;92.80;;;;;;5004180;28;20041;-79
2021/12/07 07:49:59;;;;;;;3.42;1.30;;;3.30;92.80;;;;;;5002071;28;20053;-79
2021/12/07 07:52:24;;;;;;;5.78;1.20;;;3.30;92.80;;;;;;5003957;28;20051;-79
2021/12/07 07:54:50;;;;;;;5.47;1.45;;;3.40;92.80;;;;;;5012285;28;20044;-79
2021/12/07 07:57:15;;;;;;;4.93;1.70;;;3.40;92.80;;;;;;5011011;28;20033;-79
2021/12/07 07:59:41;;;;;;;8.70;2.20;;;3.40;92.80;;;;;;5017956;28;20044;-80
2021/12/07 08:02:07;;;;;;;8.63;2.45;;;3.40;92.80;;;;;;5008795;28;20132;-79
2021/12/07 08:04:32;;;;;;;6.53;1.70;;;3.40;92.80;;;;;;5026513;28;20637;-79
2021/12/07 08:06:58;;;;;;;7.03;2.03;;;3.40;92.70;;;;;;5009978;28;20042;-79
2021/12/07 08:09:23;;;;;;;8.10;2.08;;;3.40;92.70;;;;;;5001242;28;20049;-79
2021/12/07 08:11:49;;;;;;;4.20;1.80;;;3.50;92.80;;;;;;5017550;28;20040;-80
2021/12/07 08:14:17;;;;;;;8.20;2.75;;;3.50;92.80;;;;;;5019074;28;20025;-80
2021/12/07 08:16:43;;;;;;;4.80;1.70;;;3.50;92.80;;;;;;4972909;28;20120;-80
2021/12/07 08:19:08;;;;;;;3.33;1.70;;;3.50;92.80;;;;;;5023210;28;20109;-80
2021/12/07 08:21:34;;;;;;;3.78;2.17;;;3.60;92.80;;;;;;5023189;28;20025;-80
2021/12/07 08:24:00;;;;;;;2.90;1.50;;;3.60;92.80;;;;;;5018671;28;20079;-80
2021/12/07 08:26:25;;;;;;;5.53;2.10;;;3.60;92.70;;;;;;5001127;28;20032;-80
2021/12/07 08:28:52;;;;;;;6.00;2.20;;;3.60;92.70;;;;;;5013620;28;20521;-80
2021/12/07 08:31:17;;;;;;;4.47;1.58;;;3.60;92.80;;;;;;4994432;28;20041;-80
2021/12/07 08:33:43;;;;;;;7.38;1.52;;;3.60;92.70;;;;;;4989160;28;20388;-80
2021/12/07 08:36:09;;;;;;;5.72;1.67;;;3.60;92.70;;;;;;4989058;28;20113;-80
2021/12/07 08:38:34;;;;;;;9.45;2.35;;;3.60;92.70;;;;;;5010437;28;20033;-80
2021/12/07 08:41:00;;;;;;;4.07;1.67;;;3.60;92.70;;;;;;4998724;28;20704;-80
2021/12/07 08:43:27;;;;;;;7.13;3.70;;;3.60;92.70;;;;;;4991125;28;20380;-80
2021/12/07 08:45:53;;;;;;;5.90;3.17;;;3.60;92.70;;;;;;4967384;28;20083;-79
2021/12/07 08:48:19;;;;;;;4.35;2.28;;;3.70;92.70;;;;;;5007182;28;20108;-80
2021/12/07 08:50:45;;;;;;;5.93;2.08;;;3.70;92.70;;;;;;5022705;28;20558;-80
2021/12/07 08:53:12;;;;;;;6.95;1.75;;;3.70;92.70;;;;;;4982868;28;20091;-80
2021/12/07 09:01:07;;;;;;;3.90;1.50;;;3.70;92.70;;;;;;5000596;28;20466;-80
2021/12/07 09:03:32;;;;;;;7.13;2.13;;;3.70;92.70;;;;;;5004794;28;20041;-80
2021/12/07 09:05:58;;;;;;;8.27;2.03;;;3.70;92.70;;;;;;4999766;28;20064;-80
2021/12/07 09:08:23;;;;;;;6.15;1.90;;;3.80;92.70;;;;;;4979326;28;20045;-81
2021/12/07 09:10:50;;;;;;;6.88;2.03;;;3.80;92.70;;;;;;4957287;28;20037;-81
2021/12/07 09:13:15;;;;;;;7.65;1.80;;;3.80;92.70;;;;;;4965657;28;20041;-81
2021/12/07 09:15:41;;;;;;;6.28;2.97;;;3.80;92.70;;;;;;4996965;28;20038;-80
2021/12/07 09:18:06;;;;;;;5.32;1.80;;;3.80;92.70;;;;;;4998467;28;20038;-81
2021/12/07 09:20:32;;;;;;;8.73;4.05;;;3.90;92.70;;;;;;5005229;28;20033;-81
2021/12/07 09:22:58;;;;;;;7.47;3.00;;;3.90;92.70;;;;;;4984199;28;20092;-80
2021/12/07 09:25:23;;;;;;;12.02;4.53;;;4.00;92.70;;;;;;5001802;28;20027;-81
2021/12/07 09:27:50;;;;;;;6.55;2.55;;;4.10;92.70;;;;;;4989334;28;20042;-80
2021/12/07 09:30:16;;;;;;;5.03;2.47;;;4.20;92.70;;;;;;4979521;28;20034;-81
2021/12/07 09:32:41;;;;;;;6.07;2.20;;;4.20;92.70;;;;;;4967276;28;20575;-81
2021/12/07 09:35:07;;;;;;;9.88;2.90;;;4.20;92.60;;;;;;4983844;28;20398;-80
2021/12/07 09:37:33;;;;;;;9.65;3.00;;;4.30;92.60;;;;;;4984066;28;20026;-80
2021/12/07 09:39:59;;;;;;;4.07;1.60;;;4.30;92.50;;;;;;4998491;28;20042;-80
2021/12/07 09:42:25;;;;;;;7.03;2.47;;;4.30;92.50;;;;;;5006568;28;20039;-80
2021/12/07 09:44:50;;;;;;;6.13;1.42;;;4.30;92.50;;;;;;4992834;28;20029;-80
2021/12/07 09:47:16;;;;;;;4.03;1.88;;;4.40;92.50;;;;;;5011262;28;20765;-80
2021/12/07 09:49:41;;;;;;;9.27;2.58;;;4.40;92.50;;;;;;4983380;28;20037;-80
2021/12/07 09:52:07;;;;;;;5.95;1.98;;;4.50;92.50;;;;;;5013364;28;22020;-80
2021/12/07 09:54:32;;;;;;;6.90;1.55;;;4.60;92.60;;;;;;4990016;28;20029;-80
2021/12/07 09:56:58;;;;;;;4.88;1.65;;;4.70;92.50;;;;;;4996184;28;20033;-80
2021/12/07 09:59:23;;;;;;;3.55;1.45;;;4.80;92.50;;;;;;4986024;28;20569;-79
2021/12/07 10:01:49;;;;;;;5.72;1.60;;;4.90;92.50;;;;;;5014937;28;20041;-79
2021/12/07 10:04:15;;;;;;;6.55;1.77;;;5.00;92.40;;;;;;5005668;28;20049;-79
2021/12/07 10:06:40;;;;;;;10.40;1.95;;;5.10;92.40;;;;;;5022585;28;20484;-79
2021/12/07 10:09:06;;;;;;;9.98;1.88;;;5.20;92.40;;;;;;5003629;28;20033;-80
2021/12/07 10:11:31;;;;;;;6.22;1.75;;;5.30;92.40;;;;;;5022837;28;20040;-80
2021/12/07 10:13:57;;;;;;;8.32;1.92;;;5.40;92.40;;;;;;4974743;28;20033;-80
2021/12/07 10:16:23;;;;;;;2.83;1.48;;;5.60;92.40;;;;;;5004576;28;20045;-79
2021/12/07 10:18:49;;;;;;;2.17;1.60;;;5.70;92.30;;;;;;5006312;28;20064;-79
2021/12/07 10:21:26;;;;;;;7.72;1.63;;;5.90;92.30;;;;;;5002577;28;20057;-79
2021/12/07 10:24:07;;;;;;;7.40;1.70;;;6.10;92.30;;;;;;5016025;28;20092;-79
2021/12/07 10:26:35;;;;;;;4.90;1.20;;;6.20;92.00;;;;;;5020934;28;20029;-79
2021/12/07 10:29:08;;;;;;;2.22;0.95;;;6.20;91.90;;;;;;5007714;28;20521;-80
2021/12/07 10:31:39;;;;;;;5.65;1.50;;;6.10;91.60;;;;;;5008051;28;20036;-79
2021/12/07 10:34:16;;;;;;;4.13;1.20;;;6.10;91.50;;;;;;5017784;28;20053;-79
2021/12/07 10:36:45;;;;;;;5.13;1.45;;;6.10;91.40;;;;;;5017596;28;20040;-79
2021/12/07 10:39:28;;;;;;;3.45;1.02;;;6.00;91.30;;;;;;5019695;28;20038;-78
2021/12/07 10:41:57;;;;;;;5.50;1.13;;;5.90;91.30;;;;;;4978551;28;20057;-79
2021/12/07 10:44:24;;;;;;;7.07;1.40;;;5.90;91.30;;;;;;5007699;28;20037;-79
2021/12/07 10:46:56;;;;;;;4.05;1.00;;;5.80;91.30;;;;;;4989916;28;20064;-79
2021/12/07 10:49:52;;;;;;;2.15;1.08;;;5.80;91.30;;;;;;4973624;28;20045;-80
2021/12/07 10:52:40;;;;;;;3.25;1.20;;;5.80;91.20;;;;;;5035530;28;20037;-79
2021/12/07 10:55:18;;;;;;;2.80;0.77;;;5.70;91.20;;;;;;5013645;28;20036;-79
2021/12/07 10:57:56;;;;;;;2.60;1.42;;;5.70;91.20;;;;;;5021997;28;20032;-79
2021/12/07 11:00:36;;;;;;;5.03;1.00;;;5.70;91.20;;;;;;5025082;28;20036;-79
2021/12/07 11:03:17;;;;;;;5.93;1.25;;;5.70;91.20;;;;;;5027246;28;20053;-79
2021/12/07 11:05:51;;;;;;;7.30;1.73;;;5.70;91.20;;;;;;5014825;28;20028;-78
2021/12/07 11:08:18;;;;;;;5.65;1.30;;;5.60;91.10;;;;;;5026279;28;20037;-79
2021/12/07 11:10:47;;;;;;;2.92;0.98;;;5.60;91.10;;;;;;5007531;28;20037;-79
2021/12/07 11:13:27;;;;;;;9.10;1.42;;;5.60;91.10;;;;;;5023156;28;20106;-79
2021/12/07 11:15:54;;;;;;;7.05;1.48;;;5.60;91.00;;;;;;5007725;28;20099;-79
2021/12/07 11:18:27;;;;;;;4.97;1.23;;;5.60;91.00;;;;;;5026333;28;20710;-79
2021/12/07 11:20:54;;;;;;;6.85;1.10;;;5.60;91.00;;;;;;5020001;28;20090;-79
2021/12/07 11:23:26;;;;;;;3.90;1.40;;;5.60;91.00;;;;;;5008587;28;20033;-78
2021/12/07 11:29:39;;;;;;;3.13;0.85;;;5.60;91.10;;;;;;5014677;28;20098;-80
2021/12/07 11:31:32;;;;;;;2.45;1.15;;;5.60;91.00;;;;;;5005493;28;20048;-79
2021/12/07 11:34:06;;;;;;;4.57;1.02;;;5.60;91.30;;;;;;5018678;28;20439;-79
2021/12/07 11:36:34;;;;;;;4.50;1.60;;;5.60;90.90;;;;;;5024580;28;20109;-79
2021/12/07 11:39:00;;;;;;;7.95;2.08;;;5.70;91.00;;;;;;5018360;28;20025;-79
2021/12/07 11:41:32;;;;;;;6.00;2.03;;;5.70;91.00;;;;;;5011381;28;20029;-79
2021/12/07 11:43:59;;;;;;;11.57;3.65;;;5.70;91.00;;;;;;5012516;28;20428;-79
2021/12/07 11:46:27;;;;;;;5.93;2.10;;;5.70;91.00;;;;;;5009476;28;20497;-79
2021/12/07 11:49:04;;;;;;;5.80;2.35;;;5.70;91.00;;;;;;5004928;28;20029;-79
2021/12/07 11:51:29;;;;;;;6.10;2.00;;;5.80;91.00;;;;;;4997497;28;20127;-79
2021/12/07 11:53:55;;;;;;;4.40;2.00;;;5.80;91.00;;;;;;5016417;28;20108;-79
2021/12/07 11:56:20;;;;;;;6.45;2.55;;;5.80;91.00;;;;;;5017723;28;20040;-79
2021/12/07 11:58:46;;;;;;;6.05;3.13;;;5.80;91.00;;;;;;5005265;28;20029;-79
2021/12/07 12:01:11;;;;;;;3.22;1.80;;;5.90;91.00;;;;;;5018248;28;20028;-80
2021/12/07 12:03:37;;;;;;;6.00;2.63;;;5.90;90.90;;;;;;5019056;28;20041;-79
2021/12/07 12:06:03;;;;;;;15.27;8.07;;;5.90;90.90;;;;;;4999590;28;20079;-79
2021/12/07 12:08:29;;;;;;;6.32;2.83;;;5.90;90.90;;;;;;5000494;28;20021;-79
2021/12/07 12:10:58;;;;;;;7.10;4.32;;;5.90;90.90;;;;;;4997153;28;20064;-79
2021/12/07 12:13:54;;;;;;;12.30;4.88;;;6.00;90.90;;;;;;5003719;28;20065;-79
2021/12/07 12:16:42;;;;;;;8.30;4.30;;;6.00;90.90;;;;;;5004356;28;20075;-79
2021/12/07 12:19:29;;;;;;;6.63;2.85;;;6.10;90.90;;;;;;5005479;28;20045;-78
2021/12/07 12:22:00;;;;;;;6.68;3.03;;;6.10;90.90;;;;;;4989380;28;20044;-79
2021/12/07 12:24:38;;;;;;;5.45;3.25;;;6.10;90.90;;;;;;5009075;28;20695;-80
2021/12/07 12:27:12;;;;;;;10.55;4.20;;;6.20;90.80;;;;;;5002954;28;20156;-79
2021/12/07 12:29:38;;;;;;;7.13;2.88;;;6.30;90.80;;;;;;5015075;28;20036;-79
2021/12/07 12:32:05;;;;;;;6.45;3.20;;;6.30;90.80;;;;;;5017702;28;20037;-79
2021/12/07 12:34:32;;;;;;;11.95;3.22;;;6.30;91.10;;;;;;4994701;28;20673;-80
2021/12/07 12:36:57;;;;;;;6.30;3.25;;;6.30;90.70;;;;;;4986268;28;20033;-79
2021/12/07 12:39:44;;;;;;;41.65;16.30;;;6.40;90.70;;;;;;5018357;28;20514;-80
2021/12/07 12:42:11;;;;;;;19.42;7.78;;;6.40;90.50;;;;;;5006755;28;20037;-79
2021/12/07 12:44:37;;;;;;;10.65;4.45;;;6.40;90.60;;;;;;5018877;28;20796;-79
2021/12/07 12:47:04;;;;;;;6.15;2.90;;;6.40;90.50;;;;;;5015783;28;20029;-80
2021/12/07 12:49:58;;;;;;;5.78;3.00;;;6.50;90.40;;;;;;5008351;28;20091;-80
2021/12/07 12:52:40;;;;;;;9.52;4.75;;;6.40;90.30;;;;;;4989736;28;20038;-79
2021/12/07 12:55:06;;;;;;;12.70;4.40;;;6.50;90.40;;;;;;5008765;28;20065;-79
2021/12/07 12:57:31;;;;;;;11.35;4.30;;;6.60;90.50;;;;;;5016770;28;20045;-80
2021/12/07 12:59:57;;;;;;;8.25;3.65;;;6.70;90.50;;;;;;5013016;28;20046;-79
2021/12/07 13:02:22;;;;;;;7.63;3.53;;;6.80;90.60;;;;;;4981870;28;20029;-79
2021/12/07 13:05:02;;;;;;;5.75;3.08;;;7.00;90.60;;;;;;4998775;28;20044;-79
2021/12/07 13:07:28;;;;;;;4.28;2.35;;;7.20;90.70;;;;;;4999982;28;20033;-80
2021/12/07 13:09:56;;;;;;;5.80;2.67;;;7.40;90.60;;;;;;4987124;28;20090;-80
2021/12/07 13:12:24;;;;;;;5.15;2.22;;;7.50;90.40;;;;;;4994734;28;20038;-79
2021/12/07 13:14:49;;;;;;;5.40;1.88;;;7.50;90.30;;;;;;4999238;28;20041;-80
2021/12/07 13:17:24;;;;;;;6.35;3.03;;;7.60;90.40;;;;;;5016158;28;20041;-80
2021/12/07 13:20:03;;;;;;;4.10;1.85;;;7.60;89.60;;;;;;5023680;28;20049;-79
2021/12/07 13:22:47;;;;;;;7.20;2.00;;;7.60;89.10;;;;;;5013472;28;20392;-78
2021/12/07 13:25:17;;;;;;;5.25;2.20;;;7.50;89.00;;;;;;5011001;28;20040;-79
2021/12/07 13:28:12;;;;;;;5.07;2.33;;;7.50;89.00;;;;;;5020157;28;20060;-79
2021/12/07 13:30:41;;;;;;;3.85;2.17;;;7.50;88.40;;;;;;5021001;28;20037;-79
2021/12/07 13:33:20;;;;;;;3.67;1.65;;;7.40;88.70;;;;;;5012398;28;20421;-79
2021/12/07 13:35:46;;;;;;;5.63;2.00;;;7.40;88.60;;;;;;5003756;28;20630;-78
2021/12/07 13:38:30;;;;;;;6.15;2.28;;;7.40;88.80;;;;;;5020736;28;20038;-79
2021/12/07 13:41:14;;;;;;;6.78;2.75;;;7.40;88.20;;;;;;4994391;28;20683;-79
2021/12/07 13:43:45;;;;;;;5.07;2.97;;;7.40;88.90;;;;;;5014155;28;20033;-79
2021/12/07 13:46:11;;;;;;;11.00;3.97;;;7.30;88.30;;;;;;4994677;28;20041;-79
2021/12/07 13:48:37;;;;;;;5.15;1.85;;;7.30;88.30;;;;;;5018639;28;20108;-80
2021/12/07 13:51:03;;;;;;;6.88;1.70;;;7.20;88.00;;;;;;5021190;28;20137;-79
2021/12/07 13:53:28;;;;;;;5.40;1.20;;;7.20;87.90;;;;;;5009082;28;20064;-79
2021/12/07 13:55:54;;;;;;;3.80;1.23;;;7.10;87.70;;;;;;4991885;28;20577;-80
2021/12/07 13:58:19;;;;;;;3.53;1.05;;;7.10;87.70;;;;;;5005182;28;20768;-79
2021/12/07 14:00:45;;;;;;;3.30;1.30;;;6.90;87.60;;;;;;5019159;28;20454;-79
2021/12/07 14:03:12;;;;;;;4.45;1.65;;;6.90;87.70;;;;;;5027590;28;20523;-79
2021/12/07 14:05:44;;;;;;;4.88;1.50;;;6.80;87.60;;;;;;5011675;28;20284;-79
2021/12/07 14:08:12;;;;;;;5.35;2.10;;;6.80;87.60;;;;;;4999596;28;20042;-79
2021/12/07 14:10:43;;;;;;;7.93;2.30;;;6.70;87.60;;;;;;5018646;28;20107;-79
2021/12/07 14:13:08;;;;;;;5.00;1.58;;;6.80;87.70;;;;;;5018758;28;20041;-79
2021/12/07 14:15:39;;;;;;;3.75;1.65;;;6.70;87.70;;;;;;5002940;28;20033;-79
2021/12/07 14:18:13;;;;;;;3.33;1.38;;;6.70;87.50;;;;;;4999504;28;20084;-79
2021/12/07 14:20:40;;;;;;;2.65;1.27;;;6.70;87.40;;;;;;5008152;28;20038;-79
2021/12/07 14:23:35;;;;;;;3.85;1.20;;;6.70;87.60;;;;;;5004727;28;21000;-80
2021/12/07 14:26:05;;;;;;;3.55;1.38;;;6.70;87.40;;;;;;5004685;28;20041;-79
2021/12/07 14:28:31;;;;;;;3.45;1.40;;;6.70;87.60;;;;;;4976598;28;20537;-80
2021/12/07 14:31:02;;;;;;;5.45;1.83;;;6.70;87.70;;;;;;5006228;28;20049;-79
2021/12/07 14:33:28;;;;;;;;;;;6.60;88.40;;;;;;4990617;28;20491;-79
2021/12/07 14:35:53;;;;;;;3.90;2.03;;;6.60;87.80;;;;;;5011566;28;19940;-78
2021/12/07 14:38:19;;;;;;;3.47;1.20;;;6.60;87.90;;;;;;4997404;28;20100;-78
2021/12/07 14:40:44;;;;;;;3.70;1.65;;;6.60;87.90;;;;;;4985506;28;20056;-81
2021/12/07 14:43:10;;;;;;;3.38;1.20;;;6.50;87.90;;;;;;5002071;28;20041;-82